createdAt,value
2022-11-07T06:15:52.895Z,186.93
2022-11-07T06:25:52.815Z,179.32
2022-11-07T06:35:52.818Z,179.34
2022-11-07T06:45:52.887Z,179.49
2022-11-07T06:55:53.112Z,178.99
2022-11-07T07:05:52.885Z,179.12
2022-11-07T07:15:52.924Z,179.26
2022-11-07T07:25:52.894Z,178.90
2022-11-07T07:35:52.778Z,179.02
2022-11-07T07:45:52.847Z,179.28
2022-11-07T07:55:52.910Z,179.00
2022-11-07T08:05:52.963Z,179.35
2022-11-07T08:15:52.839Z,177.81
2022-11-07T08:25:52.790Z,179.29
2022-11-07T08:35:52.993Z,179.09
2022-11-07T08:45:53.100Z,179.31
2022-11-07T08:55:53.205Z,179.34
2022-11-07T09:05:53.271Z,178.72
2022-11-07T09:15:53.163Z,178.75
2022-11-07T09:25:53.112Z,179.65
2022-11-07T09:35:53.040Z,179.58
2022-11-07T09:45:53.173Z,179.36
2022-11-07T09:55:53.142Z,179.05
2022-11-07T10:05:53.143Z,179.75
2022-11-07T10:15:53.187Z,180.41
2022-11-07T10:25:53.135Z,179.43
2022-11-07T10:35:53.201Z,179.73
2022-11-07T10:45:53.381Z,179.60
2022-11-07T10:55:53.331Z,191.54
2022-11-07T11:05:53.392Z,178.50
2022-11-07T11:15:53.222Z,179.62
2022-11-07T11:25:53.392Z,179.10
2022-11-07T11:35:53.210Z,178.97
2022-11-07T11:45:53.323Z,179.49
2022-11-07T11:55:53.323Z,178.92
2022-11-07T12:05:53.432Z,178.92
2022-11-07T12:15:53.473Z,177.87
2022-11-07T12:25:53.415Z,178.76
2022-11-07T12:35:53.251Z,178.92
2022-11-07T12:45:53.312Z,179.23
2022-11-07T12:55:53.293Z,179.47
2022-11-07T13:05:53.471Z,179.75
2022-11-07T13:16:14.682Z,179.18
2022-11-07T13:25:53.411Z,179.16
2022-11-07T13:35:53.321Z,179.79
2022-11-07T13:45:53.245Z,181.32
2022-11-07T13:55:53.437Z,179.77
2022-11-07T14:05:53.390Z,179.42
2022-11-07T14:15:53.371Z,179.76
2022-11-07T14:25:53.347Z,179.00
2022-11-07T14:35:53.268Z,178.81
2022-11-07T14:46:11.307Z,180.39
2022-11-07T14:55:53.484Z,179.57
2022-11-07T15:05:53.388Z,179.37
2022-11-07T15:15:53.435Z,179.24
2022-11-07T15:25:53.435Z,179.36
2022-11-07T15:35:53.459Z,179.20
2022-11-07T15:45:53.443Z,179.64
2022-11-07T15:55:53.466Z,178.68
2022-11-07T16:05:53.649Z,179.33
2022-11-07T16:15:53.457Z,179.11
2022-11-07T16:25:53.391Z,179.28
2022-11-07T16:35:53.524Z,179.56
2022-11-07T16:45:53.448Z,179.29
2022-11-07T16:55:54.106Z,179.77
2022-11-07T17:05:53.441Z,179.85
2022-11-07T17:15:53.487Z,179.26
2022-11-07T17:25:53.536Z,177.52
2022-11-07T17:35:53.556Z,179.63
2022-11-07T17:45:53.577Z,179.52
2022-11-07T17:55:53.739Z,179.39
2022-11-07T18:05:53.600Z,177.69
2022-11-07T18:15:53.498Z,171.65
2022-11-07T18:25:53.644Z,173.83
2022-11-07T18:35:53.532Z,175.12
2022-11-07T18:45:53.771Z,170.74
2022-11-07T18:55:53.813Z,167.62
2022-11-07T19:05:53.850Z,167.65
2022-11-07T19:15:54.057Z,171.91
